createdAt,value
2024-03-25T00:00:34.000Z,2.9
2024-03-25T00:03:19.000Z,3.5
2024-03-25T00:06:52.000Z,3.3
2024-03-25T00:10:25.000Z,3.3
2024-03-25T00:13:58.000Z,3.3
2024-03-25T00:17:30.000Z,3.3
2024-03-25T00:21:04.000Z,3.4
2024-03-25T00:24:36.000Z,3.5
2024-03-25T00:28:09.000Z,4
2024-03-25T00:31:42.000Z,4.3
2024-03-25T00:35:15.000Z,4.2
2024-03-25T00:38:48.000Z,4.2
2024-03-25T00:41:34.000Z,4
2024-03-25T00:45:06.000Z,3.8
2024-03-25T00:48:39.000Z,4.2
2024-03-25T00:52:12.000Z,4.6
2024-03-25T00:55:45.000Z,4.3
2024-03-25T00:59:17.000Z,4.1
2024-03-25T01:02:50.000Z,4.1
2024-03-25T01:06:23.000Z,4.1
2024-03-25T01:09:56.000Z,4.2
2024-03-25T01:13:29.000Z,4.4
2024-03-25T01:17:01.000Z,4.5
2024-03-25T01:19:47.000Z,4.3
2024-03-25T01:23:20.000Z,4.8
2024-03-25T01:26:52.000Z,4.7
2024-03-25T01:30:25.000Z,4.1
2024-03-25T01:33:58.000Z,5
2024-03-25T01:37:31.000Z,4.8
2024-03-25T01:41:03.000Z,5.5
2024-03-25T01:44:36.000Z,5
2024-03-25T01:48:09.000Z,5.2
2024-03-25T01:51:41.000Z,4.9
2024-03-25T01:55:14.000Z,4.8
2024-03-25T01:58:00.000Z,5.2
2024-03-25T02:01:32.000Z,4.7
2024-03-25T02:05:05.000Z,5.2
2024-03-25T02:08:38.000Z,4.5
2024-03-25T02:12:10.000Z,4.7
2024-03-25T02:15:43.000Z,4.6
2024-03-25T02:19:17.000Z,4.2
2024-03-25T02:22:50.000Z,5.3
2024-03-25T02:26:22.000Z,5.3
2024-03-25T02:29:55.000Z,5
2024-03-25T02:33:28.000Z,4.2
2024-03-25T02:36:14.000Z,4.9
2024-03-25T02:39:46.000Z,5
2024-03-25T02:43:19.000Z,5.3
2024-03-25T02:46:52.000Z,5.2
2024-03-25T02:50:24.000Z,5.6
2024-03-25T02:53:57.000Z,6
2024-03-25T02:57:30.000Z,6.2
2024-03-25T03:01:02.000Z,5.6
2024-03-25T03:04:35.000Z,5.5
2024-03-25T03:08:08.000Z,4.7
2024-03-25T03:11:40.000Z,5.6
2024-03-25T03:14:25.000Z,6.7
2024-03-25T03:17:58.000Z,5.9
2024-03-25T03:21:30.000Z,6
2024-03-25T03:25:03.000Z,5.5
2024-03-25T03:28:36.000Z,5.6
2024-03-25T03:32:08.000Z,5.7
2024-03-25T03:35:41.000Z,6.4
2024-03-25T03:39:13.000Z,6.1
2024-03-25T03:42:46.000Z,6.6
2024-03-25T03:46:18.000Z,6
2024-03-25T03:49:51.000Z,5.9
2024-03-25T03:52:37.000Z,5.5
2024-03-25T03:56:10.000Z,5.5
2024-03-25T03:59:42.000Z,5.5
2024-03-25T04:03:15.000Z,5.9
2024-03-25T04:06:47.000Z,4.5
2024-03-25T04:10:20.000Z,5.3
2024-03-25T04:13:53.000Z,4.8
2024-03-25T04:17:26.000Z,5
2024-03-25T04:20:58.000Z,5.4
2024-03-25T04:24:31.000Z,4.6
2024-03-25T04:28:03.000Z,5.2
2024-03-25T04:30:48.000Z,5.1
2024-03-25T04:34:21.000Z,5.4
2024-03-25T04:37:54.000Z,5.4
2024-03-25T04:41:26.000Z,5.6
2024-03-25T04:44:59.000Z,4.7
2024-03-25T04:48:33.000Z,5.6
2024-03-25T04:52:06.000Z,5.7
2024-03-25T04:55:38.000Z,6.4
2024-03-25T04:59:11.000Z,6.3
2024-03-25T05:02:44.000Z,5.5
2024-03-25T05:06:16.000Z,5.4
2024-03-25T05:09:02.000Z,5.4
2024-03-25T05:12:35.000Z,5.7
2024-03-25T05:16:07.000Z,5.5
2024-03-25T05:19:40.000Z,4.2
2024-03-25T05:23:14.000Z,4.5
2024-03-25T05:26:47.000Z,4.4
2024-03-25T05:30:20.000Z,4.1
2024-03-25T05:33:52.000Z,4.3
2024-03-25T05:37:25.000Z,4.6
2024-03-25T05:40:58.000Z,3.9
2024-03-25T05:44:30.000Z,4
2024-03-25T05:47:16.000Z,4.1
2024-03-25T05:50:48.000Z,4.5
2024-03-25T05:54:21.000Z,4.3
2024-03-25T05:57:53.000Z,4.3
2024-03-25T06:01:26.000Z,4.5
2024-03-25T06:04:59.000Z,4.4
2024-03-25T06:08:31.000Z,4.4
2024-03-25T06:12:04.000Z,4.9
2024-03-25T06:15:36.000Z,4.9
2024-03-25T06:19:09.000Z,4.8
2024-03-25T06:22:42.000Z,4.7
2024-03-25T06:25:27.000Z,5.5
2024-03-25T06:28:59.000Z,4.9
2024-03-25T06:32:32.000Z,4.8
2024-03-25T06:36:05.000Z,5.1
2024-03-25T06:39:38.000Z,5
2024-03-25T06:43:10.000Z,5.4
2024-03-25T06:46:43.000Z,6.1
2024-03-25T06:50:16.000Z,5.4
2024-03-25T06:53:49.000Z,5.1
2024-03-25T06:57:21.000Z,5.2
2024-03-25T07:00:54.000Z,5.3
2024-03-25T07:03:39.000Z,5
2024-03-25T07:07:12.000Z,5.7
2024-03-25T07:10:45.000Z,5
2024-03-25T07:14:17.000Z,4.5
2024-03-25T07:17:52.000Z,4.7
2024-03-25T07:21:24.000Z,5.7
2024-03-25T07:24:57.000Z,4.6
2024-03-25T07:28:30.000Z,5
2024-03-25T07:32:03.000Z,5.1
2024-03-25T07:35:36.000Z,4.3
2024-03-25T07:39:08.000Z,4.1
2024-03-25T07:41:54.000Z,5.3
2024-03-25T07:45:27.000Z,4.8
2024-03-25T07:49:00.000Z,4.3
2024-03-25T07:52:32.000Z,3.7
2024-03-25T07:56:05.000Z,4.1
2024-03-25T07:59:38.000Z,4.2
2024-03-25T08:03:11.000Z,3.7
2024-03-25T08:06:44.000Z,4
2024-03-25T08:10:16.000Z,3.6
2024-03-25T08:13:50.000Z,3.8
2024-03-25T08:17:22.000Z,4.3
2024-03-25T08:20:07.000Z,4.4
2024-03-25T08:23:40.000Z,4.3
2024-03-25T08:27:13.000Z,4.4
2024-03-25T08:30:45.000Z,4.3
2024-03-25T08:34:18.000Z,3.9
2024-03-25T08:37:51.000Z,4.3
2024-03-25T08:41:24.000Z,4.6
2024-03-25T08:44:57.000Z,3.9
2024-03-25T08:48:30.000Z,3.6
2024-03-25T08:52:02.000Z,3.3
2024-03-25T08:55:36.000Z,3.8
2024-03-25T08:58:21.000Z,4
2024-03-25T09:01:54.000Z,3.8
2024-03-25T09:05:26.000Z,4
2024-03-25T09:08:59.000Z,3.7
2024-03-25T09:12:32.000Z,3.3
2024-03-25T09:16:05.000Z,3.4
2024-03-25T09:19:37.000Z,3.1
2024-03-25T09:23:10.000Z,3.2
2024-03-25T09:26:43.000Z,3.1
2024-03-25T09:30:16.000Z,3.2
2024-03-25T09:33:49.000Z,3.9
2024-03-25T09:36:35.000Z,3.6
2024-03-25T09:40:08.000Z,3.3
2024-03-25T09:43:40.000Z,2.9
2024-03-25T09:47:14.000Z,3.1
2024-03-25T09:50:46.000Z,3.2
2024-03-25T09:54:19.000Z,3.6
2024-03-25T09:57:52.000Z,2.7
2024-03-25T10:01:25.000Z,2
2024-03-25T10:04:58.000Z,2.5
2024-03-25T10:08:31.000Z,3.3
2024-03-25T10:12:05.000Z,5.3
2024-03-25T10:14:50.000Z,2.4
2024-03-25T10:18:23.000Z,3.3
2024-03-25T10:21:55.000Z,3.9
2024-03-25T10:25:28.000Z,3.5
2024-03-25T10:29:01.000Z,2.9
2024-03-25T10:32:34.000Z,3.1
2024-03-25T10:36:07.000Z,2.8
2024-03-25T10:39:40.000Z,3
2024-03-25T10:43:12.000Z,3
2024-03-25T10:46:45.000Z,2.6
2024-03-25T10:50:18.000Z,2.5
2024-03-25T10:53:04.000Z,3.4
2024-03-25T10:56:36.000Z,2.8
2024-03-25T11:00:09.000Z,2.6
2024-03-25T11:03:42.000Z,2.8
2024-03-25T11:07:15.000Z,2.6
2024-03-25T11:10:47.000Z,2.1
2024-03-25T11:14:21.000Z,2.7
2024-03-25T11:17:54.000Z,3
2024-03-25T11:21:26.000Z,2.9
2024-03-25T11:24:59.000Z,2.7
2024-03-25T11:28:32.000Z,3.1
2024-03-25T11:31:17.000Z,3.1
2024-03-25T11:34:50.000Z,3.1
2024-03-25T11:38:23.000Z,3.4
2024-03-25T11:41:55.000Z,3.6
2024-03-25T11:45:28.000Z,3
2024-03-25T11:49:03.000Z,2.7
2024-03-25T11:52:35.000Z,2.8
2024-03-25T11:56:08.000Z,2.9
2024-03-25T11:59:41.000Z,3.2
2024-03-25T12:03:13.000Z,2.5
2024-03-25T12:06:59.000Z,3
2024-03-25T12:09:44.000Z,3.1
2024-03-25T12:13:17.000Z,2.9
2024-03-25T12:16:49.000Z,2.9
2024-03-25T12:20:22.000Z,2.7
2024-03-25T12:23:56.000Z,2.8
2024-03-25T12:27:30.000Z,2.8
2024-03-25T12:31:02.000Z,2.4
2024-03-25T12:34:36.000Z,2.6
2024-03-25T12:38:08.000Z,2.6
2024-03-25T12:41:41.000Z,2.8
2024-03-25T12:45:18.000Z,3.1
2024-03-25T12:48:04.000Z,2.7
2024-03-25T12:51:36.000Z,2.4
2024-03-25T12:55:09.000Z,2.9
2024-03-25T12:58:42.000Z,2.5
2024-03-25T13:02:14.000Z,2.3
2024-03-25T13:05:47.000Z,3.1
2024-03-25T13:09:19.000Z,2.8
2024-03-25T13:12:52.000Z,2.4
2024-03-25T13:16:25.000Z,3.1
2024-03-25T13:19:58.000Z,2.2
2024-03-25T13:23:31.000Z,3.1
2024-03-25T13:26:16.000Z,2.1
2024-03-25T13:29:49.000Z,3.2
2024-03-25T13:33:22.000Z,2.9
2024-03-25T13:36:54.000Z,4
2024-03-25T13:40:28.000Z,2.8
2024-03-25T13:44:01.000Z,4
2024-03-25T13:47:34.000Z,2.4
2024-03-25T13:51:06.000Z,3.2
2024-03-25T13:54:39.000Z,2.8
2024-03-25T13:58:12.000Z,2.3
2024-03-25T14:01:45.000Z,2.5
2024-03-25T14:04:30.000Z,2.4
2024-03-25T14:08:03.000Z,2.6
2024-03-25T14:11:35.000Z,2.7
2024-03-25T14:15:08.000Z,2.3
2024-03-25T14:18:41.000Z,2.2
2024-03-25T14:22:14.000Z,2.2
2024-03-25T14:25:47.000Z,2.4
2024-03-25T14:29:20.000Z,2.3
2024-03-25T14:32:52.000Z,2.2
2024-03-25T14:36:25.000Z,2.7
2024-03-25T14:39:58.000Z,2
2024-03-25T14:42:43.000Z,2.2
2024-03-25T14:46:16.000Z,2.3
2024-03-25T14:49:49.000Z,2.1
2024-03-25T14:53:22.000Z,2.3
2024-03-25T14:56:55.000Z,2.3
2024-03-25T15:00:28.000Z,2.2
2024-03-25T15:04:00.000Z,2.4
2024-03-25T15:07:33.000Z,2.3
2024-03-25T15:11:06.000Z,2
2024-03-25T15:14:38.000Z,1.6
2024-03-25T15:18:11.000Z,2.3
2024-03-25T15:20:57.000Z,2.1
2024-03-25T15:24:29.000Z,2.1
2024-03-25T15:28:02.000Z,2
2024-03-25T15:31:35.000Z,1.9
2024-03-25T15:35:08.000Z,2
2024-03-25T15:38:40.000Z,2.4
2024-03-25T15:42:13.000Z,2.1
2024-03-25T15:45:46.000Z,2.4
2024-03-25T15:49:18.000Z,2
2024-03-25T15:52:51.000Z,1.9
2024-03-25T15:56:24.000Z,2.5
2024-03-25T15:59:09.000Z,2.1
2024-03-25T16:02:42.000Z,1.9
2024-03-25T16:06:14.000Z,2.3
2024-03-25T16:09:47.000Z,2.1
2024-03-25T16:13:20.000Z,2.1
2024-03-25T16:16:53.000Z,2.2
2024-03-25T16:20:25.000Z,1.9
2024-03-25T16:23:58.000Z,2.4
2024-03-25T16:27:31.000Z,2.1
2024-03-25T16:31:04.000Z,2.4
2024-03-25T16:34:37.000Z,2.5
2024-03-25T16:37:22.000Z,2.2
2024-03-25T16:40:55.000Z,2
2024-03-25T16:44:28.000Z,2.5
2024-03-25T16:48:01.000Z,2.9
2024-03-25T16:51:34.000Z,2.9
2024-03-25T16:55:07.000Z,1.9
2024-03-25T16:58:40.000Z,1.7
2024-03-25T17:02:12.000Z,2
2024-03-25T17:05:45.000Z,2.1
2024-03-25T17:09:30.000Z,2.2
2024-03-25T17:13:02.000Z,2.1
2024-03-25T17:15:47.000Z,1.9
2024-03-25T17:19:20.000Z,2.1
2024-03-25T17:22:53.000Z,3.9
2024-03-25T17:26:26.000Z,2.4
2024-03-25T17:29:59.000Z,8
2024-03-25T17:33:32.000Z,7.6
2024-03-25T17:37:04.000Z,4.1
2024-03-25T17:40:37.000Z,3.4
2024-03-25T17:44:10.000Z,3.7
2024-03-25T17:47:42.000Z,3.3
2024-03-25T17:51:15.000Z,3.3
2024-03-25T17:54:01.000Z,2.6
2024-03-25T17:57:34.000Z,4.4
2024-03-25T18:01:07.000Z,3.4
2024-03-25T18:04:40.000Z,2.2
2024-03-25T18:08:12.000Z,2.7
2024-03-25T18:11:45.000Z,2.5
2024-03-25T18:15:18.000Z,2.5
2024-03-25T18:18:51.000Z,2.7
2024-03-25T18:22:24.000Z,2.3
2024-03-25T18:26:00.000Z,2.7
2024-03-25T18:29:33.000Z,3.2
2024-03-25T18:32:18.000Z,2.7
2024-03-25T18:35:50.000Z,2.4
2024-03-25T18:39:24.000Z,2.7
2024-03-25T18:42:57.000Z,3.2
2024-03-25T18:46:29.000Z,2.6
2024-03-25T18:50:02.000Z,2.2
2024-03-25T18:53:35.000Z,2.4
2024-03-25T18:57:08.000Z,2.4
2024-03-25T19:00:41.000Z,2.1
2024-03-25T19:04:13.000Z,2.6
2024-03-25T19:07:46.000Z,2.5
2024-03-25T19:10:32.000Z,2.4
2024-03-25T19:14:04.000Z,8.3
2024-03-25T19:17:38.000Z,3.7
2024-03-25T19:21:11.000Z,4
2024-03-25T19:24:44.000Z,2.5
2024-03-25T19:28:17.000Z,2.9
2024-03-25T19:31:50.000Z,4.7
2024-03-25T19:35:22.000Z,2.3
2024-03-25T19:38:55.000Z,2.8
2024-03-25T19:42:28.000Z,2.5
2024-03-25T19:46:01.000Z,3
2024-03-25T19:48:47.000Z,3.5
2024-03-25T19:52:20.000Z,2.4
2024-03-25T19:55:53.000Z,2.7
2024-03-25T19:59:25.000Z,2.9
2024-03-25T20:02:58.000Z,2.5
2024-03-25T20:06:31.000Z,3
2024-03-25T20:10:04.000Z,3.2
2024-03-25T20:13:36.000Z,3
2024-03-25T20:17:09.000Z,2.8
2024-03-25T20:20:42.000Z,2.8
2024-03-25T20:24:14.000Z,3
2024-03-25T20:26:59.000Z,2.6
2024-03-25T20:30:34.000Z,2.8
2024-03-25T20:34:06.000Z,2.7
2024-03-25T20:37:39.000Z,2.9
2024-03-25T20:41:11.000Z,2.7
2024-03-25T20:44:44.000Z,2.5
2024-03-25T20:48:17.000Z,3.4
2024-03-25T20:51:50.000Z,3
2024-03-25T20:55:21.000Z,3
2024-03-25T20:58:56.000Z,2.9
2024-03-25T21:02:25.000Z,3
2024-03-25T21:05:08.000Z,2.6
2024-03-25T21:08:41.000Z,3
2024-03-25T21:12:10.000Z,3.2
2024-03-25T21:15:41.000Z,3
2024-03-25T21:19:12.000Z,3
2024-03-25T21:22:45.000Z,3.5
2024-03-25T21:26:13.000Z,2.9
2024-03-25T21:29:41.000Z,3.1
2024-03-25T21:33:09.000Z,3.2
2024-03-25T21:36:37.000Z,3.2
2024-03-25T21:40:05.000Z,3.4
2024-03-25T21:42:48.000Z,3.5
2024-03-25T21:46:21.000Z,3.6
2024-03-25T21:49:49.000Z,4.1
2024-03-25T21:53:17.000Z,3.7
2024-03-25T21:56:45.000Z,4.5
2024-03-25T22:00:13.000Z,4
2024-03-25T22:03:41.000Z,4.2
2024-03-25T22:07:09.000Z,3.9
2024-03-25T22:10:37.000Z,3.9
2024-03-25T22:14:05.000Z,4
2024-03-25T22:17:33.000Z,4.2
2024-03-25T22:20:16.000Z,4.2
2024-03-25T22:23:45.000Z,4.1
2024-03-25T22:27:13.000Z,5
2024-03-25T22:30:41.000Z,4.4
2024-03-25T22:34:09.000Z,4.1
2024-03-25T22:37:37.000Z,4.5
2024-03-25T22:41:05.000Z,4.2
2024-03-25T22:44:33.000Z,4.9
2024-03-25T22:48:01.000Z,4.9
2024-03-25T22:51:29.000Z,5
2024-03-25T22:54:57.000Z,4.8
2024-03-25T22:57:40.000Z,4.3
2024-03-25T23:01:08.000Z,4.4
2024-03-25T23:04:36.000Z,4.2
2024-03-25T23:08:04.000Z,5.1
2024-03-25T23:11:32.000Z,4.9
2024-03-25T23:15:01.000Z,4.3
2024-03-25T23:18:29.000Z,4.8
2024-03-25T23:21:57.000Z,4.9
2024-03-25T23:25:25.000Z,4.8
2024-03-25T23:28:53.000Z,5
2024-03-25T23:32:21.000Z,4.4
2024-03-25T23:35:04.000Z,4.3
2024-03-25T23:38:32.000Z,4.8
2024-03-25T23:42:00.000Z,4.6
2024-03-25T23:45:28.000Z,4.3
2024-03-25T23:48:55.000Z,3.7
2024-03-25T23:52:24.000Z,4.2
2024-03-25T23:55:51.000Z,4.3
2024-03-25T23:59:19.000Z,4.1
